Time;durP1;ratioP1;P1;durP2;ratioP2;P2;SDS_P1;SDS_P2;PMS_P1;PMS_P2;Temp;Humidity;BMP_temperature;BMP_pressure;BME280_temperature;BME280_humidity;BME280_pressure;Samples;Min_cycle;Max_cycle;Signal;HPM_P1;HPM_P2
2022/08/19 00:01:29;;;;;;;0.82;0.80;;;;;;;;;;5036586;28;20045;-53
2022/08/19 00:03:55;;;;;;;1.38;1.27;;;;;;;;;;5011995;28;20055;-61
2022/08/19 00:06:21;;;;;;;2.35;1.00;;;;;;;;;;5036364;28;20053;-54
2022/08/19 00:08:47;;;;;;;1.30;1.23;;;;;;;;;;5048665;28;20067;-51
2022/08/19 00:11:13;;;;;;;1.33;1.23;;;;;;;;;;5033222;28;20049;-55
2022/08/19 00:13:39;;;;;;;1.10;1.02;;;;;;;;;;5043778;28;20050;-53
2022/08/19 00:16:06;;;;;;;1.30;1.20;;;;;;;;;;5035515;28;20056;-53
2022/08/19 00:18:33;;;;;;;0.80;0.80;;;;;;;;;;5037386;28;20497;-55
2022/08/19 00:20:59;;;;;;;0.60;0.60;;;;;;;;;;5039600;28;20132;-52
2022/08/19 00:23:26;;;;;;;0.80;0.73;;;;;;;;;;5035024;28;20124;-56
2022/08/19 00:25:52;;;;;;;1.10;1.00;;;;;;;;;;5035224;28;20560;-55
2022/08/19 00:28:18;;;;;;;1.42;0.98;;;;;;;;;;5040977;28;20133;-52
2022/08/19 00:30:44;;;;;;;1.10;1.10;;;;;;;;;;5030057;28;20068;-55
2022/08/19 00:33:11;;;;;;;0.90;0.90;;;;;;;;;;5038519;28;20135;-54
2022/08/19 00:35:38;;;;;;;0.70;0.70;;;;;;;;;;5040215;28;20161;-50
2022/08/19 00:38:06;;;;;;;1.23;1.13;;;;;;;;;;5036801;28;20486;-51
2022/08/19 00:40:32;;;;;;;1.30;1.20;;;;;;;;;;5028094;28;20081;-50
2022/08/19 00:42:58;;;;;;;1.40;1.15;;;;;;;;;;5033009;28;20096;-52
2022/08/19 00:45:26;;;;;;;0.88;0.88;;;;;;;;;;5042027;28;20465;-60
2022/08/19 00:47:52;;;;;;;1.40;1.30;;;;;;;;;;5046130;28;20655;-59
2022/08/19 00:50:20;;;;;;;1.33;1.13;;;;;;;;;;5029596;28;20493;-53
2022/08/19 00:52:49;;;;;;;0.80;0.80;;;;;;;;;;5043552;28;20083;-59
2022/08/19 00:55:18;;;;;;;1.45;1.10;;;;;;;;;;5041669;28;20128;-52
2022/08/19 00:57:48;;;;;;;1.05;1.00;;;;;;;;;;5037735;28;20117;-52
2022/08/19 01:00:15;;;;;;;1.05;0.90;;;;;;;;;;5044777;28;20128;-52
2022/08/19 01:02:42;;;;;;;1.50;1.35;;;;;;;;;;5039963;28;20049;-55
2022/08/19 01:05:09;;;;;;;1.30;1.20;;;;;;;;;;5036752;28;20046;-54
2022/08/19 01:07:38;;;;;;;1.42;1.33;;;;;;;;;;5039628;28;20129;-53
2022/08/19 01:10:06;;;;;;;1.67;1.20;;;;;;;;;;5035965;28;20053;-52
2022/08/19 01:12:32;;;;;;;1.02;1.02;;;;;;;;;;5034654;28;20037;-52
2022/08/19 01:14:59;;;;;;;1.40;1.30;;;;;;;;;;5035309;28;20045;-54
2022/08/19 01:17:25;;;;;;;2.08;1.60;;;;;;;;;;5039564;28;20044;-58
2022/08/19 01:19:51;;;;;;;1.08;0.98;;;;;;;;;;5031971;28;20046;-54
2022/08/19 01:22:23;;;;;;;1.23;1.20;;;;;;;;;;5040820;28;20128;-53
2022/08/19 01:24:50;;;;;;;1.48;1.38;;;;;;;;;;5030104;28;20061;-52
2022/08/19 01:27:16;;;;;;;1.33;1.23;;;;;;;;;;5034157;28;20045;-55
2022/08/19 01:29:44;;;;;;;1.48;1.17;;;;;;;;;;5040836;28;20102;-51
2022/08/19 01:32:12;;;;;;;1.27;1.17;;;;;;;;;;5037750;28;20063;-52
2022/08/19 01:34:38;;;;;;;1.58;1.48;;;;;;;;;;5034015;28;20052;-55
2022/08/19 01:37:11;;;;;;;1.20;1.10;;;;;;;;;;5034590;28;20060;-52
2022/08/19 01:39:38;;;;;;;1.30;1.20;;;;;;;;;;5031427;28;20041;-49
2022/08/19 01:42:06;;;;;;;1.50;1.10;;;;;;;;;;5036952;28;20394;-55
2022/08/19 01:44:32;;;;;;;1.50;1.27;;;;;;;;;;5007895;28;20053;-51
2022/08/19 01:46:58;;;;;;;1.20;1.10;;;;;;;;;;5040297;28;20045;-55
2022/08/19 01:49:26;;;;;;;1.42;1.33;;;;;;;;;;5037524;28;20041;-51
2022/08/19 01:51:53;;;;;;;1.20;1.08;;;;;;;;;;5036351;28;20265;-59
2022/08/19 01:54:20;;;;;;;1.17;1.08;;;;;;;;;;5032670;28;20041;-56
2022/08/19 01:56:47;;;;;;;1.10;1.00;;;;;;;;;;5031135;28;20045;-52
2022/08/19 01:59:21;;;;;;;1.10;1.10;;;;;;;;;;5035761;28;20038;-52
2022/08/19 02:01:46;;;;;;;1.10;1.00;;;;;;;;;;5028788;28;20045;-51
2022/08/19 02:04:13;;;;;;;0.55;0.55;;;;;;;;;;5033439;28;20044;-55
2022/08/19 02:06:39;;;;;;;0.85;0.85;;;;;;;;;;5033667;28;20494;-55
2022/08/19 02:09:06;;;;;;;0.95;0.95;;;;;;;;;;5039539;28;20708;-53
2022/08/19 02:11:33;;;;;;;1.13;0.95;;;;;;;;;;5027124;28;20045;-59
2022/08/19 02:14:01;;;;;;;1.20;1.15;;;;;;;;;;5033899;28;20668;-52
2022/08/19 02:16:28;;;;;;;0.93;0.93;;;;;;;;;;5041691;28;20077;-56
2022/08/19 02:18:54;;;;;;;0.93;0.93;;;;;;;;;;5036760;28;20050;-50
2022/08/19 02:21:21;;;;;;;1.00;1.00;;;;;;;;;;5034063;28;20044;-54
2022/08/19 02:23:48;;;;;;;1.10;1.10;;;;;;;;;;5041838;28;20143;-52
2022/08/19 02:26:14;;;;;;;1.60;1.50;;;;;;;;;;5027635;28;20041;-55
2022/08/19 02:28:42;;;;;;;1.08;1.08;;;;;;;;;;5035167;28;20045;-51
2022/08/19 02:31:12;;;;;;;1.40;1.30;;;;;;;;;;5034710;28;20041;-56
2022/08/19 02:33:38;;;;;;;1.30;0.90;;;;;;;;;;5037411;28;20136;-52
2022/08/19 02:36:05;;;;;;;0.80;0.80;;;;;;;;;;5036572;28;20040;-50
2022/08/19 02:38:31;;;;;;;0.98;0.98;;;;;;;;;;5031346;28;20581;-56
2022/08/19 02:40:59;;;;;;;1.33;1.15;;;;;;;;;;5039854;28;20112;-50
2022/08/19 02:43:25;;;;;;;1.40;1.30;;;;;;;;;;5028757;28;20096;-60
2022/08/19 02:45:52;;;;;;;1.15;0.90;;;;;;;;;;5032346;28;20413;-60
2022/08/19 02:48:19;;;;;;;0.93;0.93;;;;;;;;;;5043195;28;20124;-56
2022/08/19 02:50:46;;;;;;;0.98;0.98;;;;;;;;;;5028156;28;20041;-53
2022/08/19 02:53:13;;;;;;;1.35;1.25;;;;;;;;;;5042202;28;20110;-52
2022/08/19 02:55:46;;;;;;;1.33;1.20;;;;;;;;;;5045402;28;20053;-56
2022/08/19 02:58:13;;;;;;;1.33;1.23;;;;;;;;;;5044893;28;20056;-55
2022/08/19 03:00:43;;;;;;;1.08;1.00;;;;;;;;;;5045585;28;20049;-49
2022/08/19 03:03:10;;;;;;;1.23;1.00;;;;;;;;;;5044884;28;20489;-52
2022/08/19 03:05:36;;;;;;;1.02;0.82;;;;;;;;;;5044747;28;20804;-54
2022/08/19 03:08:03;;;;;;;0.80;0.80;;;;;;;;;;5042708;28;20047;-54
2022/08/19 03:10:29;;;;;;;0.73;0.73;;;;;;;;;;5045570;28;20044;-52
2022/08/19 03:12:55;;;;;;;1.17;0.82;;;;;;;;;;5044098;28;20041;-61
2022/08/19 03:15:21;;;;;;;0.60;0.60;;;;;;;;;;5045215;28;20052;-54
2022/08/19 03:17:47;;;;;;;0.60;0.60;;;;;;;;;;5044557;28;20041;-49
2022/08/19 03:20:13;;;;;;;0.82;0.82;;;;;;;;;;5044271;28;20129;-55
2022/08/19 03:22:39;;;;;;;0.90;0.90;;;;;;;;;;5045550;28;20044;-52
2022/08/19 03:25:05;;;;;;;0.70;0.70;;;;;;;;;;5044721;28;20036;-53
2022/08/19 03:27:31;;;;;;;0.68;0.68;;;;;;;;;;5044622;28;20048;-54
2022/08/19 03:29:57;;;;;;;0.80;0.80;;;;;;;;;;5045361;28;20120;-54
2022/08/19 03:32:24;;;;;;;0.82;0.82;;;;;;;;;;5045032;28;20044;-54
2022/08/19 03:34:50;;;;;;;0.68;0.68;;;;;;;;;;5044958;28;20433;-53
2022/08/19 03:37:16;;;;;;;0.70;0.70;;;;;;;;;;5028777;28;20087;-54
2022/08/19 03:39:42;;;;;;;0.80;0.80;;;;;;;;;;5048931;28;20580;-49
2022/08/19 03:42:11;;;;;;;0.70;0.70;;;;;;;;;;5048195;28;20098;-53
2022/08/19 03:44:37;;;;;;;1.77;1.10;;;;;;;;;;5048354;28;20128;-52
2022/08/19 03:47:04;;;;;;;0.80;0.80;;;;;;;;;;5048067;28;20102;-52
2022/08/19 03:49:31;;;;;;;0.77;0.77;;;;;;;;;;5048109;28;20047;-53
2022/08/19 03:52:00;;;;;;;0.90;0.90;;;;;;;;;;5042060;28;20093;-54
2022/08/19 03:54:27;;;;;;;0.80;0.80;;;;;;;;;;5036945;28;20048;-54
2022/08/19 03:56:54;;;;;;;0.70;0.70;;;;;;;;;;5033131;28;20402;-52
2022/08/19 03:59:38;;;;;;;0.40;0.40;;;;;;;;;;5047977;28;20052;-56
2022/08/19 04:02:08;;;;;;;0.88;0.88;;;;;;;;;;5041018;28;20053;-52
2022/08/19 04:04:35;;;;;;;1.00;0.90;;;;;;;;;;5032042;28;20041;-52
2022/08/19 04:07:01;;;;;;;0.90;0.90;;;;;;;;;;5037422;28;20061;-54
2022/08/19 04:09:27;;;;;;;0.90;0.90;;;;;;;;;;5033171;28;20398;-55
2022/08/19 04:11:54;;;;;;;1.00;0.90;;;;;;;;;;5028868;28;20102;-52
2022/08/19 04:14:23;;;;;;;1.00;1.00;;;;;;;;;;5031343;28;20041;-51
2022/08/19 04:16:50;;;;;;;1.45;1.35;;;;;;;;;;5040314;28;20057;-56
2022/08/19 04:19:17;;;;;;;1.38;1.25;;;;;;;;;;5037515;28;20044;-52
2022/08/19 04:21:44;;;;;;;0.90;0.90;;;;;;;;;;5039169;28;20064;-52
2022/08/19 04:24:11;;;;;;;0.77;0.77;;;;;;;;;;5038401;28;20050;-49
2022/08/19 04:26:37;;;;;;;0.80;0.80;;;;;;;;;;5042791;28;20128;-49
2022/08/19 04:29:24;;;;;;;1.08;1.00;;;;;;;;;;5033045;28;20049;-56
2022/08/19 04:31:51;;;;;;;1.25;1.15;;;;;;;;;;5033601;28;20085;-54
2022/08/19 04:34:21;;;;;;;0.70;0.70;;;;;;;;;;5040801;28;20464;-52
2022/08/19 04:36:50;;;;;;;0.70;0.70;;;;;;;;;;5039997;28;20052;-54
2022/08/19 04:39:18;;;;;;;1.10;0.90;;;;;;;;;;5035540;28;20052;-52
2022/08/19 04:44:30;;;;;;;1.15;1.05;;;;;;;;;;5042887;28;20044;-51
2022/08/19 04:46:56;;;;;;;1.50;1.40;;;;;;;;;;5032505;28;20060;-54
2022/08/19 04:49:23;;;;;;;1.50;1.40;;;;;;;;;;5040990;28;20070;-56
2022/08/19 04:51:51;;;;;;;1.75;1.65;;;;;;;;;;5039525;28;20057;-54
2022/08/19 04:54:17;;;;;;;1.48;1.38;;;;;;;;;;5046939;28;20047;-54
2022/08/19 04:56:44;;;;;;;1.48;1.00;;;;;;;;;;5046504;28;20056;-53
2022/08/19 04:59:10;;;;;;;1.25;1.00;;;;;;;;;;5045888;28;20053;-53
2022/08/19 05:01:37;;;;;;;1.08;1.08;;;;;;;;;;5046230;28;20041;-50
2022/08/19 05:04:04;;;;;;;1.30;1.20;;;;;;;;;;5046344;28;20064;-52
2022/08/19 05:06:32;;;;;;;1.00;1.00;;;;;;;;;;5045729;28;20048;-55
2022/08/19 05:08:58;;;;;;;1.20;0.98;;;;;;;;;;5046033;28;20525;-52
2022/08/19 05:11:27;;;;;;;1.38;1.27;;;;;;;;;;5046235;28;20040;-55
2022/08/19 05:13:53;;;;;;;1.50;1.40;;;;;;;;;;5046152;28;20052;-56
2022/08/19 05:16:20;;;;;;;1.10;1.10;;;;;;;;;;5046758;28;20040;-49
2022/08/19 05:24:16;;;;;;;1.00;1.00;;;;;;;;;;5045154;28;20421;-53
2022/08/19 05:26:46;;;;;;;1.30;1.20;;;;;;;;;;5044931;28;20049;-51
2022/08/19 05:29:13;;;;;;;1.17;1.10;;;;;;;;;;5043190;28;20094;-52
2022/08/19 05:31:39;;;;;;;7.55;1.48;;;;;;;;;;5027826;28;20045;-49
2022/08/19 05:34:05;;;;;;;1.25;1.20;;;;;;;;;;5045381;28;20402;-52
2022/08/19 05:36:35;;;;;;;1.25;1.15;;;;;;;;;;5046097;28;20558;-53
2022/08/19 05:39:01;;;;;;;1.00;1.00;;;;;;;;;;5045668;28;20044;-52
2022/08/19 05:41:30;;;;;;;0.82;0.80;;;;;;;;;;5045288;28;20041;-59
2022/08/19 05:43:56;;;;;;;1.23;1.23;;;;;;;;;;5045500;28;20040;-51
2022/08/19 05:46:22;;;;;;;1.25;1.15;;;;;;;;;;5045299;28;20052;-61
2022/08/19 05:48:49;;;;;;;1.40;1.30;;;;;;;;;;5044684;28;20055;-55
2022/08/19 05:51:15;;;;;;;1.13;1.08;;;;;;;;;;5045655;28;20064;-51
2022/08/19 05:53:42;;;;;;;0.80;0.80;;;;;;;;;;5044698;28;20055;-53
2022/08/19 05:56:09;;;;;;;1.27;1.20;;;;;;;;;;5045310;28;20052;-52
2022/08/19 05:58:36;;;;;;;1.17;1.00;;;;;;;;;;5041724;28;20111;-52
2022/08/19 06:01:05;;;;;;;0.70;0.70;;;;;;;;;;5044131;28;20055;-49
2022/08/19 06:03:34;;;;;;;0.80;0.80;;;;;;;;;;5044873;28;20044;-55
2022/08/19 06:06:00;;;;;;;1.02;1.00;;;;;;;;;;5043697;28;20052;-53
2022/08/19 06:08:27;;;;;;;1.50;1.40;;;;;;;;;;5044950;28;20044;-52
2022/08/19 06:10:54;;;;;;;1.50;1.40;;;;;;;;;;5044925;28;20774;-60
2022/08/19 06:13:20;;;;;;;1.58;1.48;;;;;;;;;;5046087;28;20043;-52
2022/08/19 06:15:46;;;;;;;1.20;1.10;;;;;;;;;;5044179;28;20090;-52
2022/08/19 06:18:13;;;;;;;1.33;1.23;;;;;;;;;;5045432;28;20381;-50
2022/08/19 06:20:40;;;;;;;1.45;1.35;;;;;;;;;;5042316;28;20047;-55
2022/08/19 06:23:06;;;;;;;1.58;1.48;;;;;;;;;;5044128;28;20041;-55
2022/08/19 06:25:32;;;;;;;;;;;;;;;;;;5042173;28;20041;-52
2022/08/19 06:27:58;;;;;;;;;;;;;;;;;;5044991;28;19925;-55
2022/08/19 06:30:24;;;;;;;;;;;;;;;;;;5040584;28;20359;-51
2022/08/19 06:32:50;;;;;;;;;;;;;;;;;;5045423;28;19970;-53
2022/08/19 06:35:16;;;;;;;;;;;;;;;;;;5044568;28;19924;-49
2022/08/19 06:37:42;;;;;;;;;;;;;;;;;;5045127;28;19928;-54
2022/08/19 06:40:10;;;;;;;;;;;;;;;;;;5046087;28;20397;-49
2022/08/19 06:42:38;;;;;;;;;;;;;;;;;;5045301;28;19921;-49
2022/08/19 06:45:04;;;;;;;;;;;;;;;;;;5044421;28;19956;-54
2022/08/19 06:47:31;;;;;;;;;;;;;;;;;;5039882;28;20059;-53
2022/08/19 06:49:59;;;;;;;;;;;;;;;;;;5044774;28;19940;-53
2022/08/19 06:52:25;;;;;;;;;;;;;;;;;;5046167;28;19968;-57
2022/08/19 06:54:51;;;;;;;;;;;;;;;;;;5046523;28;19990;-55
2022/08/19 06:57:17;;;;;;;;;;;;;;;;;;5045496;28;19920;-52
2022/08/19 06:59:43;;;;;;;;;;;;;;;;;;5041428;28;19936;-54
2022/08/19 07:02:09;;;;;;;;;;;;;;;;;;5033260;28;20320;-52
2022/08/19 07:04:35;;;;;;;;;;;;;;;;;;5043672;28;19995;-53
2022/08/19 07:07:00;;;;;;;;;;;;;;;;;;5044469;28;19929;-52
2022/08/19 07:09:26;;;;;;;;;;;;;;;;;;5044808;28;20023;-55
2022/08/19 07:11:53;;;;;;;3.28;3.03;;;;;;;;;;5046218;28;19925;-52
2022/08/19 07:14:20;;;;;;;3.08;2.88;;;;;;;;;;5048589;28;20037;-52
2022/08/19 07:16:51;;;;;;;3.60;2.53;;;;;;;;;;5046963;28;20064;-55
2022/08/19 07:19:17;;;;;;;;;;;;;;;;;;5046511;28;20091;-49
2022/08/19 07:21:43;;;;;;;;;;;;;;;;;;5047563;28;19976;-60
2022/08/19 07:24:09;;;;;;;;;;;;;;;;;;5046902;28;19939;-48
2022/08/19 07:26:35;;;;;;;;;;;;;;;;;;5046247;28;19968;-58
2022/08/19 07:29:01;;;;;;;;;;;;;;;;;;5046185;28;20502;-54
2022/08/19 07:31:28;;;;;;;1.90;1.80;;;;;;;;;;5048184;28;20285;-55
2022/08/19 07:33:57;;;;;;;3.20;3.00;;;;;;;;;;5046985;28;20044;-65
2022/08/19 07:36:28;;;;;;;3.17;2.90;;;;;;;;;;5047928;28;20444;-63
2022/08/19 07:38:54;;;;;;;2.50;2.30;;;;;;;;;;5047987;28;20045;-59
2022/08/19 07:41:24;;;;;;;2.28;2.08;;;;;;;;;;5048744;28;20056;-51
2022/08/19 07:43:50;;;;;;;1.50;1.40;;;;;;;;;;5029545;28;20041;-57
2022/08/19 07:46:17;;;;;;;4.53;4.13;;;;;;;;;;5046639;28;20269;-56
2022/08/19 07:48:47;;;;;;;4.00;3.70;;;;;;;;;;5048301;28;20171;-55
2022/08/19 07:51:14;;;;;;;3.20;3.00;;;;;;;;;;5048040;28;20433;-52
2022/08/19 07:53:40;;;;;;;3.17;2.85;;;;;;;;;;5033188;28;20048;-56
2022/08/19 07:56:06;;;;;;;1.98;1.88;;;;;;;;;;5035819;28;20037;-57
2022/08/19 07:58:33;;;;;;;2.88;2.58;;;;;;;;;;5035916;28;20128;-54
2022/08/19 08:00:59;;;;;;;2.75;2.55;;;;;;;;;;5036011;28;20448;-53
2022/08/19 08:09:23;;;;;;;4.35;3.42;;;;;;;;;;5026351;28;20127;-53
2022/08/19 08:11:55;;;;;;;3.30;3.00;;;;;;;;;;5035871;28;20133;-53
2022/08/19 08:14:22;;;;;;;2.92;2.72;;;;;;;;;;5037332;28;20048;-54
2022/08/19 08:16:50;;;;;;;3.45;3.15;;;;;;;;;;5032610;28;20054;-56
2022/08/19 08:19:17;;;;;;;3.10;2.80;;;;;;;;;;5035080;28;20046;-57
2022/08/19 08:21:43;;;;;;;3.30;3.00;;;;;;;;;;5038794;28;20045;-57
2022/08/19 08:24:09;;;;;;;3.20;2.70;;;;;;;;;;5036950;28;20075;-51
2022/08/19 08:26:35;;;;;;;2.65;2.45;;;;;;;;;;5034725;28;20052;-55
2022/08/19 08:29:01;;;;;;;2.05;1.95;;;;;;;;;;5018103;28;20038;-54
2022/08/19 08:31:28;;;;;;;3.17;2.97;;;;;;;;;;5034034;28;20037;-56
2022/08/19 08:33:54;;;;;;;4.05;3.67;;;;;;;;;;5041757;28;20079;-62
2022/08/19 08:36:20;;;;;;;4.57;3.38;;;;;;;;;;5035981;28;20183;-56
2022/08/19 08:38:46;;;;;;;3.88;3.58;;;;;;;;;;5028495;28;20577;-56
2022/08/19 08:41:19;;;;;;;3.35;3.05;;;;;;;;;;5032637;28;20118;-50
2022/08/19 08:43:46;;;;;;;4.25;3.95;;;;;;;;;;5034680;28;20437;-56
2022/08/19 08:46:16;;;;;;;3.40;3.10;;;;;;;;;;5026795;28;20615;-52
2022/08/19 08:48:42;;;;;;;3.28;3.00;;;;;;;;;;5036605;28;20050;-53
2022/08/19 08:51:11;;;;;;;1.85;1.75;;;;;;;;;;5045693;28;20044;-53
2022/08/19 08:53:38;;;;;;;3.15;2.92;;;;;;;;;;5040060;28;20053;-52
2022/08/19 08:56:06;;;;;;;2.92;2.72;;;;;;;;;;5034687;28;20048;-55
2022/08/19 08:58:41;;;;;;;3.10;2.85;;;;;;;;;;5035059;28;20048;-51
2022/08/19 09:01:09;;;;;;;2.13;2.03;;;;;;;;;;5031284;28;20100;-55
2022/08/19 09:03:37;;;;;;;3.10;2.85;;;;;;;;;;5036025;28;20040;-59
2022/08/19 09:06:06;;;;;;;2.95;2.75;;;;;;;;;;5032239;28;20045;-55
2022/08/19 09:08:45;;;;;;;2.72;2.53;;;;;;;;;;5040650;28;20045;-52
2022/08/19 09:11:16;;;;;;;2.33;2.13;;;;;;;;;;5020884;28;20052;-55
2022/08/19 09:13:52;;;;;;;3.53;3.23;;;;;;;;;;5025429;28;20045;-55
2022/08/19 09:16:20;;;;;;;4.45;4.07;;;;;;;;;;5030412;28;20120;-53
2022/08/19 09:18:54;;;;;;;3.47;3.25;;;;;;;;;;5026740;28;20049;-55
2022/08/19 09:21:22;;;;;;;3.35;3.15;;;;;;;;;;5045504;28;20100;-57
2022/08/19 09:23:48;;;;;;;3.90;3.50;;;;;;;;;;5040104;28;20049;-54
2022/08/19 09:26:20;;;;;;;3.55;3.35;;;;;;;;;;5026205;28;20485;-57
2022/08/19 09:28:47;;;;;;;3.78;3.58;;;;;;;;;;5025088;28;20060;-58
2022/08/19 09:31:14;;;;;;;3.03;2.83;;;;;;;;;;5026447;28;20048;-54
2022/08/19 09:33:43;;;;;;;5.18;4.70;;;;;;;;;;5031509;28;20049;-57
2022/08/19 09:36:10;;;;;;;2.95;2.75;;;;;;;;;;5039208;28;20042;-52
2022/08/19 09:38:37;;;;;;;4.00;3.60;;;;;;;;;;5023152;28;20870;-52
2022/08/19 09:41:13;;;;;;;3.28;3.03;;;;;;;;;;5026546;28;20053;-55
2022/08/19 09:43:39;;;;;;;3.83;3.53;;;;;;;;;;5027108;28;20056;-56
2022/08/19 09:46:06;;;;;;;2.80;2.60;;;;;;;;;;5025763;28;20136;-52
2022/08/19 09:48:33;;;;;;;2.60;2.40;;;;;;;;;;5020516;28;20379;-57
2022/08/19 09:51:06;;;;;;;4.47;4.10;;;;;;;;;;5027054;28;20549;-57
2022/08/19 09:53:32;;;;;;;3.10;2.90;;;;;;;;;;5034010;28;20513;-52
2022/08/19 09:55:58;;;;;;;3.72;3.42;;;;;;;;;;5028799;28;20508;-55
2022/08/19 09:58:27;;;;;;;4.65;4.35;;;;;;;;;;5040660;28;20040;-64
2022/08/19 10:00:54;;;;;;;4.93;4.57;;;;;;;;;;5040493;28;20532;-55
2022/08/19 10:03:21;;;;;;;3.05;2.80;;;;;;;;;;5046256;28;20205;-54
2022/08/19 10:05:50;;;;;;;4.47;4.18;;;;;;;;;;5045094;28;20045;-52
2022/08/19 10:08:18;;;;;;;3.40;3.20;;;;;;;;;;5045240;28;20048;-55
2022/08/19 10:10:44;;;;;;;5.38;4.97;;;;;;;;;;5045519;28;20895;-54
2022/08/19 10:13:10;;;;;;;7.30;6.70;;;;;;;;;;5045531;28;20452;-56
2022/08/19 10:15:39;;;;;;;4.88;4.47;;;;;;;;;;5044999;28;20040;-55
2022/08/19 10:18:05;;;;;;;5.07;4.68;;;;;;;;;;5044881;28;20500;-56
2022/08/19 10:20:31;;;;;;;3.47;3.17;;;;;;;;;;5045608;28;20120;-53
2022/08/19 10:22:59;;;;;;;5.57;5.15;;;;;;;;;;5044564;28;20052;-55
2022/08/19 10:25:26;;;;;;;7.45;6.85;;;;;;;;;;5045509;28;20037;-64
2022/08/19 10:27:52;;;;;;;4.68;4.28;;;;;;;;;;5044686;28;20049;-53
2022/08/19 10:30:19;;;;;;;7.13;6.53;;;;;;;;;;5045375;28;20041;-54
2022/08/19 10:32:45;;;;;;;4.82;4.43;;;;;;;;;;5044171;28;20056;-58
2022/08/19 10:35:12;;;;;;;6.65;6.13;;;;;;;;;;5044409;28;20552;-57
2022/08/19 10:37:38;;;;;;;7.20;6.65;;;;;;;;;;5045350;28;20051;-56
2022/08/19 10:40:07;;;;;;;5.78;5.30;;;;;;;;;;5044894;28;20033;-50
2022/08/19 10:42:33;;;;;;;5.30;4.90;;;;;;;;;;5044784;28;20049;-56
2022/08/19 10:44:59;;;;;;;3.95;3.65;;;;;;;;;;5044175;28;20077;-49
2022/08/19 10:47:25;;;;;;;3.88;3.58;;;;;;;;;;5044419;28;20041;-57
2022/08/19 10:52:36;;;;;;;3.08;2.88;;;;;;;;;;5044943;28;20080;-59
2022/08/19 10:57:52;;;;;;;4.00;3.75;;;;;;;;;;5041518;28;20041;-55
2022/08/19 11:00:18;;;;;;;6.68;6.18;;;;;;;;;;5038759;28;20128;-57
2022/08/19 11:02:45;;;;;;;7.88;7.18;;;;;;;;;;5039327;28;20048;-54
2022/08/19 11:05:11;;;;;;;4.55;4.18;;;;;;;;;;5042606;28;20091;-55
2022/08/19 11:07:38;;;;;;;5.35;5.00;;;;;;;;;;5044515;28;20052;-59
2022/08/19 11:10:05;;;;;;;6.65;6.15;;;;;;;;;;5043213;28;20148;-50
2022/08/19 11:12:32;;;;;;;6.60;6.13;;;;;;;;;;5043848;28;20601;-52
2022/08/19 11:14:58;;;;;;;7.70;7.10;;;;;;;;;;5044310;28;20095;-49
2022/08/19 11:17:24;;;;;;;6.85;6.35;;;;;;;;;;5044666;28;20040;-63
2022/08/19 11:19:50;;;;;;;4.80;4.50;;;;;;;;;;5044819;28;20053;-60
2022/08/19 11:22:17;;;;;;;4.38;4.07;;;;;;;;;;5026953;28;20067;-54
2022/08/19 11:24:43;;;;;;;4.55;4.22;;;;;;;;;;5044148;28;20576;-54
2022/08/19 11:27:09;;;;;;;8.32;7.63;;;;;;;;;;5043958;28;20580;-52
2022/08/19 11:29:36;;;;;;;7.22;6.63;;;;;;;;;;5045005;28;20669;-52
2022/08/19 11:32:08;;;;;;;7.90;7.20;;;;;;;;;;5041633;28;20072;-57
2022/08/19 11:34:35;;;;;;;5.00;4.22;;;;;;;;;;5043898;28;20045;-52
2022/08/19 11:37:01;;;;;;;4.43;4.13;;;;;;;;;;5043858;28;20049;-53
2022/08/19 11:39:28;;;;;;;4.10;3.80;;;;;;;;;;5040834;28;20087;-52
2022/08/19 11:41:55;;;;;;;3.70;3.50;;;;;;;;;;5039743;28;20120;-63
2022/08/19 11:44:21;;;;;;;3.05;2.85;;;;;;;;;;5029893;28;20049;-50
2022/08/19 11:46:47;;;;;;;3.92;3.50;;;;;;;;;;5024403;28;20140;-57
2022/08/19 11:49:18;;;;;;;2.70;2.55;;;;;;;;;;5025337;28;20457;-54
2022/08/19 11:51:45;;;;;;;4.38;4.05;;;;;;;;;;5033586;28;20344;-52
2022/08/19 11:54:12;;;;;;;3.83;3.53;;;;;;;;;;5043106;28;20064;-48
2022/08/19 11:56:39;;;;;;;3.85;3.55;;;;;;;;;;5037949;28;20417;-52
2022/08/19 11:59:05;;;;;;;3.70;3.50;;;;;;;;;;5044634;28;20041;-50
2022/08/19 12:01:31;;;;;;;4.18;3.88;;;;;;;;;;5047574;28;20049;-56
2022/08/19 12:03:57;;;;;;;3.95;3.72;;;;;;;;;;5047681;28;20128;-50
2022/08/19 12:06:34;;;;;;;4.45;4.15;;;;;;;;;;5047957;28;20148;-52
2022/08/19 12:09:01;;;;;;;5.07;4.57;;;;;;;;;;5046421;28;20425;-52
2022/08/19 12:11:28;;;;;;;4.35;4.03;;;;;;;;;;5048568;28;20048;-54
2022/08/19 12:13:54;;;;;;;3.63;3.42;;;;;;;;;;5048312;28;20076;-52
2022/08/19 12:16:23;;;;;;;3.80;3.50;;;;;;;;;;5049066;28;20067;-52
2022/08/19 12:18:50;;;;;;;3.92;3.63;;;;;;;;;;5047781;28;20091;-53
2022/08/19 12:21:17;;;;;;;4.10;3.80;;;;;;;;;;5047379;28;20057;-58
2022/08/19 12:23:45;;;;;;;3.92;3.63;;;;;;;;;;5048082;28;20128;-56
2022/08/19 12:26:11;;;;;;;4.10;3.80;;;;;;;;;;5048024;28;20424;-54
2022/08/19 12:28:38;;;;;;;4.05;3.75;;;;;;;;;;5047646;28;20091;-55
2022/08/19 12:31:04;;;;;;;4.55;4.18;;;;;;;;;;5047957;28;20036;-52
2022/08/19 12:33:31;;;;;;;3.92;3.63;;;;;;;;;;5047691;28;20704;-54
2022/08/19 12:36:00;;;;;;;4.60;4.30;;;;;;;;;;5047024;28;20099;-53
2022/08/19 12:38:26;;;;;;;5.20;4.80;;;;;;;;;;5048357;28;20045;-54
2022/08/19 12:40:52;;;;;;;6.03;5.53;;;;;;;;;;5048342;28;20047;-55
2022/08/19 12:43:22;;;;;;;5.63;5.20;;;;;;;;;;5047440;28;20049;-52
2022/08/19 12:45:48;;;;;;;5.22;4.82;;;;;;;;;;5047109;28;20059;-55
2022/08/19 12:48:14;;;;;;;4.10;3.78;;;;;;;;;;5046170;28;20173;-57
2022/08/19 12:50:41;;;;;;;4.07;3.78;;;;;;;;;;5045998;28;20044;-53
2022/08/19 12:53:07;;;;;;;5.30;4.78;;;;;;;;;;5047257;28;20453;-50
2022/08/19 12:55:33;;;;;;;6.45;5.88;;;;;;;;;;5047119;28;20049;-55
2022/08/19 12:58:01;;;;;;;7.82;6.65;;;;;;;;;;5047306;28;20402;-52
2022/08/19 13:00:27;;;;;;;7.03;6.43;;;;;;;;;;5047752;28;20493;-52
2022/08/19 13:02:54;;;;;;;5.55;4.88;;;;;;;;;;5047082;28;20076;-54
2022/08/19 13:05:25;;;;;;;5.82;5.38;;;;;;;;;;5047626;28;20132;-54
2022/08/19 13:07:52;;;;;;;5.18;4.68;;;;;;;;;;5047367;28;20052;-58
2022/08/19 13:10:19;;;;;;;7.15;6.30;;;;;;;;;;5046650;28;20071;-53
2022/08/19 13:12:47;;;;;;;5.68;5.22;;;;;;;;;;5047181;28;20053;-57
2022/08/19 13:15:13;;;;;;;5.22;4.82;;;;;;;;;;5047410;28;20123;-50
2022/08/19 13:17:40;;;;;;;4.78;4.32;;;;;;;;;;5046699;28;20048;-58
2022/08/19 13:20:08;;;;;;;4.20;3.80;;;;;;;;;;5047048;28;20053;-51
2022/08/19 13:22:35;;;;;;;4.65;4.03;;;;;;;;;;5047607;28;20052;-51
2022/08/19 13:25:01;;;;;;;4.22;3.92;;;;;;;;;;5046364;28;20053;-51
2022/08/19 13:27:27;;;;;;;4.13;3.83;;;;;;;;;;5047063;28;20504;-52
2022/08/19 13:35:23;;;;;;;1.77;1.67;;;;;;;;;;5047827;28;20052;-54
2022/08/19 13:37:49;;;;;;;1.77;1.67;;;;;;;;;;5046043;28;20052;-53
2022/08/19 13:40:17;;;;;;;1.80;1.70;;;;;;;;;;5047002;28;20165;-52
2022/08/19 13:42:46;;;;;;;1.27;1.27;;;;;;;;;;5046635;28;20091;-53
2022/08/19 13:45:14;;;;;;;1.52;1.42;;;;;;;;;;5046235;28;20049;-56
2022/08/19 13:47:44;;;;;;;0.98;0.98;;;;;;;;;;5046742;28;20045;-55
2022/08/19 13:50:15;;;;;;;0.90;0.90;;;;;;;;;;5043513;28;20048;-50
2022/08/19 13:52:41;;;;;;;1.73;1.63;;;;;;;;;;5040679;28;20068;-49
2022/08/19 13:55:08;;;;;;;1.80;1.50;;;;;;;;;;5029565;28;20065;-55
2022/08/19 13:57:34;;;;;;;2.00;1.80;;;;;;;;;;5031198;28;20040;-57
2022/08/19 14:00:00;;;;;;;1.80;1.70;;;;;;;;;;5016396;28;20046;-54
2022/08/19 14:02:26;;;;;;;1.92;1.83;;;;;;;;;;5019236;28;20056;-57
2022/08/19 14:04:53;;;;;;;0.90;0.90;;;;;;;;;;5022290;28;20053;-52
2022/08/19 14:07:19;;;;;;;1.30;1.20;;;;;;;;;;5025844;28;20046;-51
2022/08/19 14:09:45;;;;;;;2.15;2.03;;;;;;;;;;5026012;28;20321;-62
2022/08/19 14:12:11;;;;;;;4.38;3.65;;;;;;;;;;5026499;28;20623;-52
2022/08/19 14:14:37;;;;;;;2.90;2.65;;;;;;;;;;5025896;28;20045;-53
2022/08/19 14:17:06;;;;;;;3.83;3.10;;;;;;;;;;5026149;28;20184;-49
2022/08/19 14:19:32;;;;;;;3.80;3.50;;;;;;;;;;5025472;28;20048;-54
2022/08/19 14:21:58;;;;;;;2.75;2.55;;;;;;;;;;5024724;28;20049;-52
2022/08/19 14:24:24;;;;;;;3.50;3.13;;;;;;;;;;5007587;28;20046;-54
2022/08/19 14:26:50;;;;;;;4.60;4.20;;;;;;;;;;5006270;28;20568;-55
2022/08/19 14:29:17;;;;;;;5.85;5.40;;;;;;;;;;5006069;28;20042;-52
2022/08/19 14:31:43;;;;;;;5.57;5.13;;;;;;;;;;5012100;28;20128;-50
2022/08/19 14:34:09;;;;;;;3.53;3.22;;;;;;;;;;5025003;28;20048;-50
2022/08/19 14:36:36;;;;;;;3.17;2.58;;;;;;;;;;5016777;28;20518;-52
2022/08/19 14:39:02;;;;;;;3.97;3.67;;;;;;;;;;5018173;28;20072;-52
2022/08/19 14:41:30;;;;;;;3.88;3.58;;;;;;;;;;5014958;28;20049;-51
2022/08/19 14:43:56;;;;;;;4.85;4.35;;;;;;;;;;5016311;28;20422;-50
2022/08/19 14:46:23;;;;;;;3.60;3.30;;;;;;;;;;5015196;28;20414;-52
2022/08/19 14:48:50;;;;;;;5.63;5.07;;;;;;;;;;5017159;28;20048;-50
2022/08/19 14:51:16;;;;;;;5.13;4.25;;;;;;;;;;5022861;28;20076;-55
2022/08/19 14:53:43;;;;;;;2.92;2.72;;;;;;;;;;5039652;28;20057;-52
2022/08/19 14:56:13;;;;;;;2.60;2.40;;;;;;;;;;5037435;28;20567;-52
2022/08/19 14:58:40;;;;;;;4.00;3.70;;;;;;;;;;5038871;28;20041;-57
2022/08/19 15:01:07;;;;;;;4.13;3.83;;;;;;;;;;5042481;28;20040;-54
2022/08/19 15:03:33;;;;;;;3.20;2.90;;;;;;;;;;5016469;28;20147;-53
2022/08/19 15:06:00;;;;;;;2.80;2.60;;;;;;;;;;5034395;28;20112;-50
2022/08/19 15:08:27;;;;;;;2.55;2.35;;;;;;;;;;5039791;28;20053;-51
2022/08/19 15:10:53;;;;;;;3.33;3.03;;;;;;;;;;5042245;28;20405;-56
2022/08/19 15:13:19;;;;;;;3.95;3.63;;;;;;;;;;5036322;28;20045;-54
2022/08/19 15:15:47;;;;;;;2.80;2.50;;;;;;;;;;5034795;28;20045;-55